createdAt,value
2023-01-19T00:00:25.793Z,100451.86
2023-01-19T00:02:54.500Z,100453.30
2023-01-19T00:05:22.120Z,100464.39
2023-01-19T00:07:49.951Z,100469.06
2023-01-19T00:10:19.200Z,100472.27
2023-01-19T00:12:46.753Z,100476.41
2023-01-19T00:15:34.331Z,100473.31
2023-01-19T00:18:05.969Z,100466.48
2023-01-19T00:20:37.197Z,100464.77
2023-01-19T00:23:07.399Z,100459.52
2023-01-19T00:25:35.634Z,100454.86
2023-01-19T00:28:03.169Z,100464.33
2023-01-19T00:30:34.333Z,100465.81
2023-01-19T00:33:02.412Z,100457.92
2023-01-19T00:35:30.637Z,100451.05
2023-01-19T00:37:59.530Z,100450.27
2023-01-19T00:40:27.846Z,100446.27
2023-01-19T00:42:54.943Z,100446.05
2023-01-19T00:45:23.730Z,100440.10
2023-01-19T00:47:56.557Z,100436.14
2023-01-19T00:50:27.532Z,100431.14
2023-01-19T00:52:56.628Z,100434.27
2023-01-19T00:55:24.063Z,100432.34
2023-01-19T00:57:53.359Z,100430.55
2023-01-19T07:28:48.349Z,100523.71
2023-01-19T07:31:16.727Z,100528.13
2023-01-19T07:33:44.356Z,100534.73
2023-01-19T07:36:13.947Z,100538.77
2023-01-19T07:38:46.655Z,100533.45
2023-01-19T07:41:14.168Z,100540.83
2023-01-19T07:43:41.358Z,100539.73
2023-01-19T07:46:08.502Z,100535.60
2023-01-19T07:48:35.713Z,100533.20
2023-01-19T07:51:08.758Z,100530.08
2023-01-19T07:53:37.877Z,100527.25
2023-01-19T07:56:07.121Z,100532.67
2023-01-19T07:58:35.234Z,100528.97
2023-01-19T08:01:09.459Z,100546.41
2023-01-19T08:03:37.803Z,100553.64
2023-01-19T08:06:05.454Z,100564.81
2023-01-19T08:08:36.483Z,100576.11
2023-01-19T08:11:03.808Z,100574.42
2023-01-19T08:13:35.256Z,100574.31
2023-01-19T08:16:04.432Z,100560.70
2023-01-19T08:18:32.141Z,100559.70
2023-01-19T08:20:59.936Z,100558.39
2023-01-19T08:23:30.767Z,100553.48
2023-01-19T08:25:57.867Z,100552.52
2023-01-19T08:28:25.921Z,100555.42
2023-01-19T08:30:54.093Z,100558.39
2023-01-19T08:33:25.910Z,100566.85
2023-01-19T08:35:53.262Z,100570.13
2023-01-19T08:38:21.103Z,100578.05
2023-01-19T08:40:48.835Z,100585.65
2023-01-19T08:43:16.328Z,100582.29
2023-01-19T08:45:51.263Z,100584.47
2023-01-19T08:48:21.719Z,100583.52
2023-01-19T08:50:49.351Z,100581.06
2023-01-19T08:53:16.518Z,100579.57
2023-01-19T08:55:44.786Z,100568.34
2023-01-19T08:58:11.905Z,100564.51
2023-01-19T09:00:39.675Z,100560.98
2023-01-19T09:03:07.917Z,100568.76
2023-01-19T09:05:38.326Z,100572.56
2023-01-19T09:08:10.077Z,100579.83
2023-01-19T09:10:39.265Z,100582.16
2023-01-19T09:13:08.775Z,100583.63
2023-01-19T09:15:37.189Z,100583.06
2023-01-19T09:20:43.593Z,100572.75
2023-01-19T09:23:11.939Z,100570.04
2023-01-19T09:25:40.481Z,100570.45
2023-01-19T09:28:09.348Z,100569.91
2023-01-19T09:30:37.721Z,100562.02
2023-01-19T09:33:11.301Z,100558.61
2023-01-19T09:35:39.237Z,100552.80
2023-01-19T09:38:07.727Z,100549.80
2023-01-19T09:40:49.217Z,100540.08
2023-01-19T09:43:31.380Z,100548.79
2023-01-19T09:45:59.293Z,100543.77
2023-01-19T09:48:50.530Z,100541.33
2023-01-19T09:51:19.461Z,100534.58
2023-01-19T09:53:57.922Z,100527.26
2023-01-19T09:56:25.133Z,100523.30
2023-01-19T09:58:52.530Z,100517.86
2023-01-19T10:01:55.241Z,100518.02
2023-01-19T10:04:34.535Z,100516.90
2023-01-19T10:07:17.153Z,100514.30
2023-01-19T10:10:15.516Z,100509.75
2023-01-19T10:12:52.193Z,100506.63
2023-01-19T10:15:32.017Z,100503.95
2023-01-19T10:18:18.322Z,100500.60
2023-01-19T10:20:51.455Z,100501.27
2023-01-19T10:23:34.947Z,100497.00
2023-01-19T10:26:24.989Z,100492.27
2023-01-19T10:29:20.365Z,100482.34
2023-01-19T10:31:58.486Z,100484.25
2023-01-19T10:34:25.738Z,100481.23
2023-01-19T10:36:59.180Z,100472.61
2023-01-19T10:39:26.780Z,100469.64
2023-01-19T10:42:20.104Z,100463.77
2023-01-19T10:45:15.480Z,100465.05
2023-01-19T10:47:42.552Z,100471.29
2023-01-19T10:50:28.741Z,100471.36
2023-01-19T10:52:58.334Z,100471.63
2023-01-19T10:55:33.218Z,100467.63
2023-01-19T10:58:00.508Z,100476.67
2023-01-19T11:00:30.725Z,100473.34
2023-01-19T11:02:58.005Z,100474.15
2023-01-19T11:05:27.290Z,100469.79
2023-01-19T11:07:54.554Z,100469.11
2023-01-19T11:10:29.388Z,100465.69
2023-01-19T11:13:02.605Z,100457.07
2023-01-19T11:15:35.174Z,100459.41
2023-01-19T11:18:04.197Z,100458.21
2023-01-19T11:20:52.333Z,100444.74
2023-01-19T11:23:31.162Z,100450.55
2023-01-19T11:26:02.292Z,100448.90
2023-01-19T11:28:43.574Z,100456.23
2023-01-19T11:31:15.416Z,100446.38
2023-01-19T11:33:43.635Z,100452.83
2023-01-19T11:36:25.510Z,100459.42
2023-01-19T11:38:54.573Z,100458.76
2023-01-19T11:41:32.002Z,100456.73
2023-01-19T11:44:30.726Z,100455.64
2023-01-19T11:47:03.255Z,100449.17
2023-01-19T11:49:46.063Z,100452.79
2023-01-19T11:52:36.223Z,100453.08
2023-01-19T11:55:06.584Z,100450.45
2023-01-19T11:57:33.945Z,100453.46
2023-01-19T12:00:03.778Z,100453.92
2023-01-19T12:02:44.008Z,100460.88
2023-01-19T12:05:16.993Z,100460.66
2023-01-19T12:07:44.434Z,100461.87
2023-01-19T12:10:31.196Z,100463.17
2023-01-19T12:12:59.081Z,100458.50
2023-01-19T12:15:34.477Z,100466.28
2023-01-19T12:18:02.725Z,100467.68
2023-01-19T12:20:43.272Z,100466.56
2023-01-19T12:23:31.830Z,100466.92
2023-01-19T12:26:17.921Z,100481.98
2023-01-19T12:28:47.525Z,100488.76
2023-01-19T12:31:16.250Z,100488.02
2023-01-19T12:33:43.403Z,100492.27
2023-01-19T12:36:17.448Z,100492.55
2023-01-19T12:38:53.811Z,100486.64
2023-01-19T12:41:20.922Z,100488.36
2023-01-19T12:43:49.203Z,100490.41
2023-01-19T12:46:24.364Z,100497.44
2023-01-19T12:48:51.474Z,100493.81
2023-01-19T12:51:27.712Z,100493.31
2023-01-19T12:53:56.252Z,100487.00
2023-01-19T12:56:29.540Z,100484.91
2023-01-19T12:58:56.581Z,100483.66
2023-01-19T13:01:25.167Z,100480.88
2023-01-19T13:04:07.142Z,100482.59
2023-01-19T13:06:49.860Z,100485.01
2023-01-19T13:09:29.244Z,100481.09
2023-01-19T13:12:14.932Z,100472.56
2023-01-19T13:14:42.983Z,100468.41
2023-01-19T13:17:50.597Z,100463.26
2023-01-19T13:20:17.636Z,100470.70
2023-01-19T13:22:49.678Z,100468.77
2023-01-19T13:25:35.732Z,100469.70
2023-01-19T13:28:08.384Z,100463.02
2023-01-19T13:30:35.453Z,100469.95
2023-01-19T13:33:19.575Z,100472.81
2023-01-19T13:35:54.987Z,100473.99
2023-01-19T13:38:23.106Z,100472.33
2023-01-19T13:40:50.880Z,100478.31
2023-01-19T13:43:20.114Z,100475.21
2023-01-19T13:45:51.119Z,100475.88
2023-01-19T13:48:22.350Z,100481.88
2023-01-19T13:50:57.606Z,100481.80
2023-01-19T13:53:25.042Z,100483.36
2023-01-19T13:56:18.454Z,100487.67
2023-01-19T13:59:00.965Z,100482.73
2023-01-19T14:01:29.375Z,100474.31
2023-01-19T14:03:57.565Z,100467.48
2023-01-19T14:06:39.113Z,100468.05
2023-01-19T14:09:19.667Z,100457.30
2023-01-19T14:11:48.769Z,100459.81
2023-01-19T14:14:26.606Z,100452.61
2023-01-19T14:16:54.047Z,100454.20
2023-01-19T14:19:21.318Z,100455.30
2023-01-19T14:22:01.597Z,100458.10
2023-01-19T14:24:33.364Z,100455.73
2023-01-19T14:27:27.012Z,100458.16
2023-01-19T14:29:55.033Z,100459.70
2023-01-19T14:32:25.345Z,100454.45
2023-01-19T14:35:11.687Z,100454.50
2023-01-19T14:37:47.412Z,100458.96
2023-01-19T14:40:21.734Z,100456.42
2023-01-19T14:42:52.695Z,100457.30
2023-01-19T14:45:22.884Z,100457.98
2023-01-19T14:48:04.244Z,100455.52
2023-01-19T14:50:36.332Z,100453.23
2023-01-19T14:53:18.812Z,100457.13
2023-01-19T14:55:56.839Z,100460.65
2023-01-19T14:58:25.368Z,100460.36
2023-01-19T15:00:56.071Z,100468.02
2023-01-19T15:03:31.951Z,100470.23
2023-01-19T15:06:17.836Z,100469.59
2023-01-19T15:08:44.996Z,100474.05
2023-01-19T15:11:15.242Z,100472.98
2023-01-19T15:13:43.627Z,100465.68
2023-01-19T15:16:10.959Z,100473.34
2023-01-19T15:18:39.014Z,100475.10
2023-01-19T15:21:08.184Z,100478.60
2023-01-19T15:23:35.347Z,100478.02
2023-01-19T15:26:03.765Z,100478.52
2023-01-19T15:28:30.881Z,100484.25
2023-01-19T15:31:00.943Z,100477.98
2023-01-19T15:33:32.344Z,100481.73
2023-01-19T15:35:59.619Z,100474.42
2023-01-19T15:38:28.008Z,100479.75
2023-01-19T15:40:55.396Z,100483.16
2023-01-19T15:43:22.543Z,100489.21
2023-01-19T15:45:51.837Z,100487.10
2023-01-19T15:48:20.164Z,100499.24
2023-01-19T15:50:47.987Z,100507.61
2023-01-19T15:53:16.634Z,100515.61
2023-01-19T15:55:44.089Z,100514.50
2023-01-19T15:58:13.902Z,100516.43
2023-01-19T16:00:41.382Z,100514.85
2023-01-19T16:03:09.807Z,100525.28
2023-01-19T16:05:42.986Z,100520.42
2023-01-19T16:08:12.003Z,100529.94
2023-01-19T16:10:40.341Z,100531.51
2023-01-19T16:13:08.182Z,100538.98
2023-01-19T16:15:36.597Z,100544.53
2023-01-19T16:18:04.580Z,100544.31
2023-01-19T16:20:31.879Z,100551.40
2023-01-19T16:23:13.555Z,100548.14
2023-01-19T16:25:41.719Z,100545.04
2023-01-19T16:28:09.362Z,100539.59
2023-01-19T16:30:36.528Z,100542.42
2023-01-19T16:33:05.663Z,100552.73
2023-01-19T16:35:32.870Z,100559.82
2023-01-19T16:38:00.142Z,100566.89
2023-01-19T16:40:27.463Z,100567.73
2023-01-19T16:42:54.487Z,100571.58
2023-01-19T16:45:21.644Z,100570.84
2023-01-19T16:47:50.841Z,100576.16
2023-01-19T16:50:18.668Z,100569.70
2023-01-19T16:52:45.959Z,100569.52
2023-01-19T16:55:13.160Z,100570.74
2023-01-19T16:57:40.596Z,100573.02
2023-01-19T17:00:10.465Z,100569.61
2023-01-19T17:02:38.599Z,100575.06
2023-01-19T17:05:07.771Z,100578.23
2023-01-19T17:07:35.042Z,100570.52
2023-01-19T17:10:02.390Z,100575.44
2023-01-19T17:12:32.069Z,100574.66
2023-01-19T17:15:00.117Z,100571.77
2023-01-19T17:17:27.691Z,100566.98
2023-01-19T17:19:54.779Z,100565.77
2023-01-19T17:22:21.853Z,100565.63
2023-01-19T17:24:49.356Z,100564.68
2023-01-19T17:27:17.466Z,100565.97
2023-01-19T17:29:48.645Z,100564.53
2023-01-19T17:32:17.067Z,100572.96
2023-01-19T17:34:46.857Z,100572.23
2023-01-19T17:37:14.488Z,100582.20
2023-01-19T17:39:43.087Z,100576.29
2023-01-19T17:42:10.535Z,100578.23
2023-01-19T17:44:39.139Z,100583.15
2023-01-19T17:47:06.683Z,100589.13
2023-01-19T17:49:33.955Z,100586.62
2023-01-19T17:52:01.111Z,100586.51
2023-01-19T17:54:28.423Z,100589.41
2023-01-19T17:56:56.442Z,100590.67
2023-01-19T17:59:23.560Z,100589.42
2023-01-19T18:01:50.844Z,100590.27
2023-01-19T18:04:18.017Z,100593.45
2023-01-19T18:06:47.315Z,100592.95
2023-01-19T18:09:14.499Z,100599.02
2023-01-19T18:11:43.235Z,100594.87
2023-01-19T18:14:10.385Z,100591.94
2023-01-19T18:16:37.627Z,100595.52
2023-01-19T18:19:05.291Z,100595.64
2023-01-19T18:21:32.546Z,100597.59
2023-01-19T18:24:04.433Z,100602.88
2023-01-19T18:26:33.175Z,100598.44
2023-01-19T18:29:00.673Z,100599.27
2023-01-19T18:31:28.121Z,100599.45
2023-01-19T18:33:55.555Z,100603.93
2023-01-19T18:36:22.813Z,100607.80
2023-01-19T18:38:50.281Z,100617.70
2023-01-19T18:41:18.909Z,100616.23
2023-01-19T18:43:47.052Z,100617.79
2023-01-19T18:46:14.959Z,100619.20
2023-01-19T18:48:42.207Z,100625.61
2023-01-19T18:51:11.195Z,100628.19
2023-01-19T18:53:38.857Z,100624.98
2023-01-19T18:56:06.286Z,100629.17
2023-01-19T18:58:33.578Z,100628.96
2023-01-19T19:01:01.007Z,100634.05
2023-01-19T19:03:28.269Z,100639.27
2023-01-19T19:05:55.659Z,100634.90
2023-01-19T19:08:22.879Z,100634.00
2023-01-19T19:10:50.098Z,100631.66
2023-01-19T19:13:17.490Z,100630.08
2023-01-19T19:15:44.688Z,100626.73
